Syn Turais — IBEJ — position and weather

sailwx.info

Track history (hours):
 
Tides and Currents Weather Stations Pressure Air Temp Water Temp Dewpoint Dewpoint Depression Visibility Wind Speed Wind Dir Waves Ship Positions

Syn Turais

Last reported at 2018-Jun-18 01:01 UTC. Time now 2018-Jun-22 05:25 UTC.
Position N 37°25' E 002°20'.

Length 95 m; draft 5.7 m.

Type: Ship (hazmat cat A). MMSI: 247325600.

Date/timePositionNaut miles runAvg speedWind from/ knotsBaromVisibWave heightAir tempDewpointWater temp
2018-Jun-18 01:01N 37°25' E 002°20'112.0
2018-Jun-18 00:56N 37°24' E 002°19'4212.0
2018-Jun-17 21:25N 37°13' E 001°28'1011.7
2018-Jun-17 20:34N 37°10' E 001°16'511.4
2018-Jun-17 20:11N 37°09' E 001°11'1011.4
2018-Jun-17 19:18N 37°06' E 000°59'311.3
2018-Jun-17 19:00N 37°05' E 000°55'611.2
2018-Jun-17 18:28N 37°03' E 000°48'511.2
2018-Jun-17 18:00N 37°02' E 000°41'611.2
2018-Jun-17 17:30N 37°00' E 000°34'611.1
2018-Jun-17 17:00N 36°58' E 000°28'510.9
2018-Jun-17 16:30N 36°57' E 000°22'610.9
2018-Jun-17 15:58N 36°55' E 000°15'510.6
2018-Jun-17 15:29N 36°54' E 000°08'510.6
2018-Jun-17 15:00N 36°53' E 000°02'610.9
2018-Jun-17 14:28N 36°50' W 000°04'510.3
2018-Jun-17 14:00N 36°51' W 000°10'611.1
2018-Jun-17 13:28N 36°48' W 000°17'511.0
2018-Jun-17 12:59N 36°47' W 000°23'611.2
2018-Jun-17 12:29N 36°45' W 000°30'611.5
2018-Jun-17 12:00N 36°44' W 000°37'611.1
2018-Jun-17 11:30N 36°42' W 000°44'611.1
2018-Jun-17 10:58N 36°41' W 000°51'2010.3
2018-Jun-17 08:59N 36°35' W 001°15'811.3
2018-Jun-17 08:15N 36°32' W 001°25'411.5
2018-Jun-17 07:52N 36°31' W 001°30'18312.2
2018-Jun-16 16:52N 35°56' W 005°13'411.7
2018-Jun-16 16:31N 35°55' W 005°18'1 2.0
2018-Jun-16 16:00N 35°54' W 005°18'0 0.0
2018-Jun-16 15:30N 35°54' W 005°18'0 0.0
2018-Jun-16 15:00N 35°54' W 005°18'0 0.0
2018-Jun-16 14:30N 35°54' W 005°18'0 0.0
2018-Jun-16 14:00N 35°54' W 005°18'0 0.0
2018-Jun-16 13:30N 35°54' W 005°18'0 0.0
2018-Jun-16 13:00N 35°54' W 005°18'0 0.0
2018-Jun-16 12:30N 35°54' W 005°18'0 0.0
2018-Jun-16 12:00N 35°54' W 005°18'0 0.0
2018-Jun-16 11:30N 35°54' W 005°18'0 0.6
2018-Jun-16 11:00N 35°54' W 005°19'2 3.2
2018-Jun-16 10:29N 35°55' W 005°20'0 0.3
2018-Jun-16 09:59N 35°56' W 005°20'0 0.0
2018-Jun-16 09:29N 35°56' W 005°20'0 0.0
2018-Jun-16 08:59N 35°56' W 005°20'0 0.2
2018-Jun-16 08:30N 35°56' W 005°20'1 1.8
2018-Jun-16 08:00N 35°56' W 005°20'611.5
2018-Jun-16 07:30N 35°57' W 005°27'1612.8
2018-Jun-16 06:17N 35°54' W 005°46'412.7
2018-Jun-16 06:00N 35°54' W 005°51'6810.4
2018-Jun-15 23:27N 36°46' W 006°45'  
Track history (hours):
 
Tides and Currents Weather Stations Pressure Air Temp Water Temp Dewpoint Dewpoint Depression Visibility Wind Speed Wind Dir Waves Ship Positions

Syn Turais

Last reported at 2018-Jun-18 01:01 UTC. Time now 2018-Jun-22 05:25 UTC.
Position N 37°25' E 002°20'.

Length 95 m; draft 5.7 m.

Type: Ship (hazmat cat A). MMSI: 247325600.

Date/timePositionNaut miles runAvg speedWind from/ knotsBaromVisibWave heightAir tempDewpointWater temp
2018-Jun-18 01:01N 37°25' E 002°20'112.0
2018-Jun-18 00:56N 37°24' E 002°19'4212.0
2018-Jun-17 21:25N 37°13' E 001°28'1011.7
2018-Jun-17 20:34N 37°10' E 001°16'511.4
2018-Jun-17 20:11N 37°09' E 001°11'1011.4
2018-Jun-17 19:18N 37°06' E 000°59'311.3
2018-Jun-17 19:00N 37°05' E 000°55'611.2
2018-Jun-17 18:28N 37°03' E 000°48'511.2
2018-Jun-17 18:00N 37°02' E 000°41'611.2
2018-Jun-17 17:30N 37°00' E 000°34'611.1
2018-Jun-17 17:00N 36°58' E 000°28'510.9
2018-Jun-17 16:30N 36°57' E 000°22'610.9
2018-Jun-17 15:58N 36°55' E 000°15'510.6
2018-Jun-17 15:29N 36°54' E 000°08'510.6
2018-Jun-17 15:00N 36°53' E 000°02'610.9
2018-Jun-17 14:28N 36°50' W 000°04'510.3
2018-Jun-17 14:00N 36°51' W 000°10'611.1
2018-Jun-17 13:28N 36°48' W 000°17'511.0
2018-Jun-17 12:59N 36°47' W 000°23'611.2
2018-Jun-17 12:29N 36°45' W 000°30'611.5
2018-Jun-17 12:00N 36°44' W 000°37'611.1
2018-Jun-17 11:30N 36°42' W 000°44'611.1
2018-Jun-17 10:58N 36°41' W 000°51'2010.3
2018-Jun-17 08:59N 36°35' W 001°15'811.3
2018-Jun-17 08:15N 36°32' W 001°25'411.5
2018-Jun-17 07:52N 36°31' W 001°30'18312.2
2018-Jun-16 16:52N 35°56' W 005°13'411.7
2018-Jun-16 16:31N 35°55' W 005°18'1 2.0
2018-Jun-16 16:00N 35°54' W 005°18'0 0.0
2018-Jun-16 15:30N 35°54' W 005°18'0 0.0
2018-Jun-16 15:00N 35°54' W 005°18'0 0.0
2018-Jun-16 14:30N 35°54' W 005°18'0 0.0
2018-Jun-16 14:00N 35°54' W 005°18'0 0.0
2018-Jun-16 13:30N 35°54' W 005°18'0 0.0
2018-Jun-16 13:00N 35°54' W 005°18'0 0.0
2018-Jun-16 12:30N 35°54' W 005°18'0 0.0
2018-Jun-16 12:00N 35°54' W 005°18'0 0.0
2018-Jun-16 11:30N 35°54' W 005°18'0 0.6
2018-Jun-16 11:00N 35°54' W 005°19'2 3.2
2018-Jun-16 10:29N 35°55' W 005°20'0 0.3
2018-Jun-16 09:59N 35°56' W 005°20'0 0.0
2018-Jun-16 09:29N 35°56' W 005°20'0 0.0
2018-Jun-16 08:59N 35°56' W 005°20'0 0.2
2018-Jun-16 08:30N 35°56' W 005°20'1 1.8
2018-Jun-16 08:00N 35°56' W 005°20'611.5
2018-Jun-16 07:30N 35°57' W 005°27'1612.8
2018-Jun-16 06:17N 35°54' W 005°46'412.7
2018-Jun-16 06:00N 35°54' W 005°51'6810.4
2018-Jun-15 23:27N 36°46' W 006°45'  

Dump ship's entire track history